CheckWX is a tool to help pilots better visualize weather data.  It is not intended as a substitute for an official pre-flight weather briefing.

02:55:17 UTC

EGSS METAR
London Stansted Airport
London, United Kingdom
Current

35 mins ago

EGSS 230220Z AUTO 07009KT 9999 NCD 11/06 Q1000
Observed
Apr-23 @ 02:20 UTC
Wind
  • 070° at 9 KTS
Visibility
10,000+ meters
Flight Rules
VFR
Cloud Levels
  • Clear skies
Temperature
11°C / 52°F
Dewpoint
C / 43°F
Humidity
72%
Altimeter
29.53" Hg
Pressure
999.92 hPa
Previous

1 hour ago

EGSS 230150Z AUTO 07008KT 9999 NCD 11/06 Q1000
Observed
Apr-23 @ 01:50 UTC
Wind
  • 070° at 8 KTS
Visibility
10,000+ meters
Flight Rules
VFR
Cloud Levels
  • Clear skies
Temperature
11°C / 52°F
Dewpoint
C / 43°F
Humidity
72%
Altimeter
29.53" Hg
Pressure
999.92 hPa
Previous

2 hours ago

EGSS 230120Z AUTO 06008KT 9999 NCD 11/06 Q1000
Observed
Apr-23 @ 01:20 UTC
Wind
  • 060° at 8 KTS
Visibility
10,000+ meters
Flight Rules
VFR
Cloud Levels
  • Clear skies
Temperature
11°C / 52°F
Dewpoint
C / 43°F
Humidity
72%
Altimeter
29.53" Hg
Pressure
999.92 hPa